createdAt,value
2019-01-03T00:00:11.598Z,0.80
2019-01-03T00:03:15.181Z,1.00
2019-01-03T00:06:22.177Z,0.43
2019-01-03T00:09:24.652Z,0.43
2019-01-03T00:12:23.200Z,0.43
2019-01-03T00:15:32.557Z,0.40
2019-01-03T00:18:31.438Z,0.50
2019-01-03T00:21:40.803Z,0.30
2019-01-03T00:24:48.829Z,0.63
2019-01-03T00:27:58.854Z,1.13
2019-01-03T00:31:00.918Z,0.77
2019-01-03T00:37:28.873Z,0.78
2019-01-03T00:40:38.054Z,0.50
2019-01-03T00:43:31.863Z,0.43
2019-01-03T00:46:31.937Z,1.03
2019-01-03T00:49:36.062Z,0.77
2019-01-03T00:52:45.454Z,0.70
2019-01-03T00:55:48.034Z,1.07
2019-01-03T00:58:57.399Z,0.60
2019-01-03T01:01:59.615Z,0.40
2019-01-03T01:05:08.088Z,0.70
2019-01-03T01:08:10.478Z,0.53
2019-01-03T01:11:19.817Z,0.37
2019-01-03T01:14:21.583Z,0.47
2019-01-03T01:17:31.043Z,0.80
2019-01-03T01:24:02.703Z,0.80
2019-01-03T01:27:04.596Z,0.43
2019-01-03T01:30:06.350Z,0.68
2019-01-03T01:33:06.295Z,0.60
2019-01-03T01:36:15.403Z,0.40
2019-01-03T01:39:17.614Z,0.63
2019-01-03T01:42:26.974Z,0.88
2019-01-03T01:45:29.110Z,0.60
2019-01-03T01:48:31.232Z,0.60
2019-01-03T01:51:40.697Z,0.57
2019-01-03T01:54:48.425Z,0.50
2019-01-03T01:57:57.787Z,1.33
2019-01-03T02:00:59.979Z,0.50
2019-01-03T02:03:56.843Z,0.80
2019-01-03T02:07:06.306Z,0.62
2019-01-03T02:10:08.777Z,0.50
2019-01-03T02:13:31.113Z,0.30
2019-01-03T02:16:24.415Z,0.50
2019-01-03T02:19:26.183Z,0.60
2019-01-03T02:22:36.467Z,0.50
2019-01-03T02:25:35.489Z,0.57
2019-01-03T02:28:44.631Z,0.33
2019-01-03T02:31:46.324Z,0.50
2019-01-03T02:34:48.374Z,0.50
2019-01-03T02:38:16.995Z,0.73
2019-01-03T02:41:21.966Z,0.37
2019-01-03T02:44:22.896Z,0.73
2019-01-03T02:47:32.002Z,1.03
2019-01-03T02:50:34.474Z,0.40
2019-01-03T02:53:44.083Z,0.43
2019-01-03T02:56:39.335Z,0.50
2019-01-03T02:59:48.755Z,0.30
2019-01-03T03:02:45.525Z,0.90
2019-01-03T03:05:54.982Z,0.53
2019-01-03T03:08:45.111Z,0.40
2019-01-03T03:11:54.706Z,0.55
2019-01-03T03:14:56.492Z,1.17
2019-01-03T03:18:05.608Z,0.60
2019-01-03T03:21:07.598Z,0.88
2019-01-03T03:24:16.719Z,0.37
2019-01-03T03:27:18.666Z,0.43
2019-01-03T03:30:20.796Z,0.63
2019-01-03T03:33:23.105Z,0.90
2019-01-03T03:36:24.949Z,1.03
2019-01-03T03:39:34.065Z,0.47
2019-01-03T03:46:39.028Z,0.55
2019-01-03T03:49:47.381Z,0.60
2019-01-03T03:52:56.971Z,0.90
2019-01-03T03:55:58.964Z,0.40
2019-01-03T03:58:57.920Z,0.63
2019-01-03T04:01:58.000Z,0.70
2019-01-03T04:04:56.647Z,0.80
2019-01-03T04:08:05.744Z,0.60
2019-01-03T04:11:08.115Z,0.93
2019-01-03T04:14:17.470Z,0.40
2019-01-03T04:17:17.735Z,0.60
2019-01-03T04:20:19.806Z,0.33
2019-01-03T04:23:14.569Z,0.30
2019-01-03T04:26:23.765Z,0.60
2019-01-03T04:29:28.444Z,0.53
2019-01-03T04:32:28.628Z,0.83
2019-01-03T04:35:30.367Z,1.47
2019-01-03T04:38:39.481Z,1.02
2019-01-03T04:41:39.916Z,0.60
2019-01-03T04:44:49.022Z,0.60
2019-01-03T04:47:43.308Z,1.13
2019-01-03T04:50:52.664Z,0.50
2019-01-03T04:53:54.120Z,1.53
2019-01-03T04:57:03.227Z,0.60
2019-01-03T05:00:11.083Z,0.43
2019-01-03T05:03:20.519Z,0.60
2019-01-03T05:06:22.920Z,0.70
2019-01-03T05:09:32.105Z,0.60
2019-01-03T05:12:39.724Z,0.82
2019-01-03T05:15:41.632Z,0.53
2019-01-03T05:18:50.728Z,0.73
2019-01-03T05:21:50.818Z,0.47
2019-01-03T05:25:00.423Z,0.30
2019-01-03T05:28:08.318Z,0.82
2019-01-03T05:31:10.497Z,0.95
2019-01-03T05:34:19.868Z,0.33
2019-01-03T05:37:21.790Z,0.63
2019-01-03T05:40:31.669Z,0.45
2019-01-03T05:43:29.972Z,0.50
2019-01-03T05:46:33.645Z,0.75
2019-01-03T05:49:42.750Z,0.78
2019-01-03T05:52:35.985Z,0.60
2019-01-03T05:55:45.094Z,0.50
2019-01-03T06:01:55.392Z,0.30
2019-01-03T06:05:04.816Z,0.40
2019-01-03T06:08:06.863Z,0.63
2019-01-03T06:11:16.209Z,1.17
2019-01-03T06:14:18.071Z,0.40
2019-01-03T06:17:15.475Z,0.40
2019-01-03T06:20:25.310Z,0.40
2019-01-03T06:23:24.726Z,0.20
2019-01-03T06:26:34.340Z,0.75
2019-01-03T06:29:35.870Z,0.40
2019-01-03T06:32:37.303Z,0.93
2019-01-03T06:35:43.812Z,0.87
2019-01-03T06:38:52.920Z,0.50
2019-01-03T06:41:55.246Z,0.40
2019-01-03T06:45:04.342Z,0.67
2019-01-03T06:48:06.561Z,0.40
2019-01-03T06:51:07.464Z,0.63
2019-01-03T06:54:09.242Z,0.60
2019-01-03T06:57:18.367Z,0.60
2019-01-03T07:00:16.484Z,1.37
2019-01-03T07:03:18.471Z,1.53
2019-01-03T07:06:28.059Z,2.43
2019-01-03T07:09:28.320Z,0.80
2019-01-03T07:12:37.731Z,0.53
2019-01-03T07:15:39.214Z,0.43
2019-01-03T07:18:41.137Z,0.53
2019-01-03T07:24:39.394Z,0.63
2019-01-03T07:27:36.921Z,0.47
2019-01-03T07:30:27.755Z,0.70
2019-01-03T07:33:26.642Z,0.60
2019-01-03T07:36:29.985Z,0.40
2019-01-03T07:39:39.189Z,1.15
2019-01-03T07:42:40.959Z,1.10
2019-01-03T07:45:50.044Z,0.40
2019-01-03T07:48:51.772Z,0.80
2019-01-03T07:52:01.441Z,0.70
2019-01-03T07:55:01.787Z,0.50
2019-01-03T08:01:32.188Z,0.90
2019-01-03T08:04:33.648Z,0.55
2019-01-03T08:07:36.028Z,0.67
2019-01-03T08:10:38.462Z,0.85
2019-01-03T08:13:41.010Z,1.27
2019-01-03T08:16:50.335Z,1.57
2019-01-03T08:19:52.668Z,1.37
2019-01-03T08:23:02.028Z,0.63
2019-01-03T08:26:02.426Z,0.63
2019-01-03T08:29:04.148Z,0.97
2019-01-03T08:31:51.715Z,1.17
2019-01-03T08:34:53.635Z,0.88
2019-01-03T08:38:02.742Z,0.70
2019-01-03T08:41:04.587Z,0.40
2019-01-03T08:44:06.504Z,0.60
2019-01-03T08:47:35.339Z,0.60
2019-01-03T08:50:31.282Z,0.70
2019-01-03T08:53:40.631Z,0.53
2019-01-03T08:56:42.083Z,0.63
2019-01-03T08:59:44.350Z,1.73
2019-01-03T09:02:53.661Z,0.37
2019-01-03T09:05:55.230Z,1.40
2019-01-03T09:09:04.332Z,0.80
2019-01-03T09:11:58.175Z,0.53
2019-01-03T09:15:07.475Z,1.87
2019-01-03T09:18:09.683Z,0.55
2019-01-03T09:21:18.888Z,1.17
2019-01-03T09:24:20.332Z,1.47
2019-01-03T09:27:29.451Z,0.57
2019-01-03T09:30:31.700Z,0.57
2019-01-03T09:33:25.343Z,0.70
2019-01-03T09:36:25.948Z,0.90
2019-01-03T09:39:35.068Z,0.65
2019-01-03T09:45:47.276Z,0.80
2019-01-03T09:48:30.416Z,1.03
2019-01-03T09:51:20.579Z,0.53
2019-01-03T09:54:03.695Z,0.70
2019-01-03T09:56:53.900Z,1.07
2019-01-03T09:59:37.358Z,0.50
2019-01-03T10:02:27.547Z,0.60
2019-01-03T10:05:10.873Z,0.67
2019-01-03T10:08:01.360Z,0.50
2019-01-03T10:10:46.512Z,0.60
2019-01-03T10:13:36.771Z,0.90
2019-01-03T10:16:19.862Z,0.80
2019-01-03T10:19:10.323Z,0.90
2019-01-03T10:21:53.021Z,0.40
2019-01-03T10:24:36.779Z,0.60
2019-01-03T10:27:20.014Z,0.60
2019-01-03T10:30:03.314Z,0.50
2019-01-03T10:32:53.524Z,0.40
2019-01-03T10:35:36.367Z,1.30
2019-01-03T10:38:26.673Z,0.40
2019-01-03T10:41:09.244Z,1.33
2019-01-03T10:43:52.147Z,0.60
2019-01-03T10:46:33.355Z,1.30
2019-01-03T10:49:16.629Z,0.87
2019-01-03T10:52:07.190Z,0.50
2019-01-03T10:54:50.359Z,0.70
2019-01-03T10:57:21.586Z,0.60
2019-01-03T11:00:05.079Z,1.67
2019-01-03T11:02:56.521Z,1.20
2019-01-03T11:05:39.182Z,0.67
2019-01-03T11:08:29.447Z,1.07
2019-01-03T11:11:12.552Z,0.90
2019-01-03T11:14:03.143Z,0.73
2019-01-03T11:16:46.092Z,1.10
2019-01-03T11:19:36.670Z,1.30
2019-01-03T11:22:17.856Z,0.72
2019-01-03T11:25:08.172Z,0.53
2019-01-03T11:27:51.374Z,0.60
2019-01-03T11:30:41.847Z,0.70
2019-01-03T11:33:44.296Z,0.70
2019-01-03T11:36:34.495Z,0.90
2019-01-03T11:39:17.299Z,0.80
2019-01-03T11:42:00.286Z,0.60
2019-01-03T11:44:51.056Z,0.70
2019-01-03T11:47:33.665Z,0.50
2019-01-03T11:50:24.048Z,0.70
2019-01-03T11:53:06.604Z,1.03
2019-01-03T11:55:50.200Z,0.53
2019-01-03T11:58:33.241Z,0.60
2019-01-03T12:01:23.429Z,0.70
2019-01-03T12:04:08.565Z,0.60
2019-01-03T12:10:00.566Z,0.70
2019-01-03T12:12:50.793Z,0.70
2019-01-03T12:15:34.040Z,0.40
2019-01-03T12:18:25.232Z,0.70
2019-01-03T12:21:08.318Z,0.70
2019-01-03T12:23:51.246Z,0.60
2019-01-03T12:26:41.437Z,1.13
2019-01-03T12:29:24.308Z,0.67
2019-01-03T12:32:14.607Z,1.07
2019-01-03T12:34:57.763Z,0.87
2019-01-03T12:37:40.432Z,1.37
2019-01-03T12:40:23.642Z,0.97
2019-01-03T12:43:07.040Z,0.82
2019-01-03T12:45:57.246Z,0.63
2019-01-03T12:48:45.457Z,0.60
2019-01-03T12:51:25.968Z,0.85
2019-01-03T12:54:08.864Z,0.60
2019-01-03T12:56:59.351Z,0.83
2019-01-03T12:59:40.979Z,0.27
2019-01-03T13:05:32.672Z,0.57
2019-01-03T13:08:22.936Z,0.60
2019-01-03T13:11:05.896Z,0.83
2019-01-03T13:13:56.446Z,0.63
2019-01-03T13:16:39.853Z,0.90
2019-01-03T13:19:30.136Z,0.80
2019-01-03T13:22:13.104Z,1.27
2019-01-03T13:25:03.343Z,1.13
2019-01-03T13:27:46.666Z,0.78
2019-01-03T13:30:37.193Z,0.83
2019-01-03T13:33:19.877Z,0.80
2019-01-03T13:36:10.102Z,0.93
2019-01-03T13:38:53.301Z,1.07
2019-01-03T13:41:45.189Z,1.84
2019-01-03T13:44:28.248Z,1.30
2019-01-03T13:47:11.550Z,1.07
2019-01-03T13:49:54.519Z,1.30
2019-01-03T13:52:45.300Z,0.93
2019-01-03T13:55:28.682Z,0.80
2019-01-03T13:58:19.237Z,1.40
2019-01-03T14:01:07.964Z,1.50
2019-01-03T14:03:58.485Z,0.90
2019-01-03T14:06:41.706Z,0.82
2019-01-03T14:09:32.410Z,1.33
2019-01-03T14:12:15.292Z,0.90
2019-01-03T14:15:25.284Z,0.73
2019-01-03T14:18:07.958Z,0.87
2019-01-03T14:20:58.181Z,0.90
2019-01-03T14:26:11.930Z,1.07
2019-01-03T14:28:54.185Z,1.05
2019-01-03T14:31:37.171Z,0.70
2019-01-03T14:34:27.872Z,1.67
2019-01-03T14:36:58.860Z,0.90
2019-01-03T14:39:49.290Z,2.00
2019-01-03T14:42:32.025Z,0.97
2019-01-03T14:45:22.211Z,0.98
2019-01-03T14:48:05.750Z,1.17
2019-01-03T14:53:58.051Z,0.60
2019-01-03T14:56:40.703Z,0.80
2019-01-03T14:59:30.974Z,1.37
2019-01-03T15:02:12.414Z,1.47
2019-01-03T15:05:03.490Z,1.78
2019-01-03T15:07:46.704Z,1.80
2019-01-03T15:10:36.911Z,1.52
2019-01-03T15:13:20.192Z,1.37
2019-01-03T15:19:12.350Z,1.00
2019-01-03T15:21:56.671Z,1.22
2019-01-03T15:24:46.845Z,1.55
2019-01-03T15:27:29.874Z,1.13
2019-01-03T15:30:20.065Z,1.00
2019-01-03T15:33:03.070Z,1.22
2019-01-03T15:35:53.585Z,1.40
2019-01-03T15:38:43.144Z,1.80
2019-01-03T15:41:33.351Z,1.57
2019-01-03T15:44:15.992Z,1.10
2019-01-03T15:47:06.283Z,1.70
2019-01-03T15:49:49.121Z,0.63
2019-01-03T15:52:20.126Z,1.10
2019-01-03T15:55:03.269Z,2.37
2019-01-03T15:57:53.952Z,1.40
2019-01-03T16:00:37.731Z,0.98
2019-01-03T16:03:28.235Z,1.25
2019-01-03T16:06:11.515Z,1.35
2019-01-03T16:09:02.009Z,1.60
2019-01-03T16:11:44.819Z,1.60
2019-01-03T16:14:35.008Z,1.47
2019-01-03T16:17:18.212Z,1.63
2019-01-03T16:20:08.973Z,1.07
2019-01-03T16:22:52.278Z,1.50
2019-01-03T16:25:42.703Z,1.20
2019-01-03T16:28:25.881Z,1.72
2019-01-03T16:31:16.390Z,1.77
2019-01-03T16:33:59.243Z,1.80
2019-01-03T16:36:49.451Z,2.00
2019-01-03T16:39:34.540Z,1.87
2019-01-03T16:42:18.020Z,1.62
2019-01-03T16:45:08.617Z,1.70
2019-01-03T16:47:51.232Z,1.57
2019-01-03T16:50:41.518Z,3.47
2019-01-03T16:53:24.743Z,1.90
2019-01-03T16:56:15.155Z,1.90
2019-01-03T16:58:58.606Z,1.97
2019-01-03T17:01:48.818Z,1.67
2019-01-03T17:04:31.799Z,1.67
2019-01-03T17:07:15.158Z,1.87
2019-01-03T17:13:47.516Z,2.10
2019-01-03T17:16:30.878Z,1.77
2019-01-03T17:19:13.885Z,2.57
2019-01-03T17:22:04.352Z,3.63
2019-01-03T17:24:47.520Z,4.17
2019-01-03T17:27:30.510Z,3.17
2019-01-03T17:30:20.701Z,2.47
2019-01-03T17:33:05.599Z,2.37
2019-01-03T17:35:56.042Z,2.92
2019-01-03T17:38:39.457Z,1.72
2019-01-03T17:41:30.293Z,2.70
2019-01-03T17:44:13.765Z,2.40
2019-01-03T17:47:03.972Z,1.73
2019-01-03T17:49:47.041Z,2.37
2019-01-03T17:55:44.739Z,2.83
2019-01-03T17:58:54.450Z,1.80
2019-01-03T18:01:37.787Z,2.47
2019-01-03T18:04:28.027Z,2.77
2019-01-03T18:07:11.184Z,2.70
2019-01-03T18:10:02.638Z,2.47
2019-01-03T18:13:04.500Z,2.20
2019-01-03T18:15:54.928Z,3.77
2019-01-03T18:18:38.824Z,2.45
2019-01-03T18:21:21.565Z,2.15
2019-01-03T18:24:05.632Z,2.87
2019-01-03T18:29:24.528Z,2.13
2019-01-03T18:32:08.752Z,2.58
2019-01-03T18:34:51.304Z,1.67
2019-01-03T18:37:42.362Z,2.47
2019-01-03T18:40:25.449Z,1.63
2019-01-03T18:43:15.695Z,1.52
2019-01-03T18:45:58.320Z,2.97
2019-01-03T18:48:48.545Z,2.20
2019-01-03T18:51:31.989Z,2.60
2019-01-03T18:54:22.216Z,1.73
2019-01-03T18:57:05.641Z,2.65
2019-01-03T18:59:55.857Z,3.40
2019-01-03T19:02:39.086Z,2.37
2019-01-03T19:05:29.332Z,2.45
2019-01-03T19:08:12.555Z,2.33
2019-01-03T19:11:23.482Z,2.70
2019-01-03T19:14:06.840Z,3.33
2019-01-03T19:20:05.384Z,2.10
2019-01-03T19:22:55.875Z,1.52
2019-01-03T19:25:37.163Z,1.60
2019-01-03T19:28:20.700Z,1.12
2019-01-03T19:31:03.937Z,2.30
2019-01-03T19:33:47.606Z,2.53
2019-01-03T19:36:38.105Z,2.23
2019-01-03T19:39:21.403Z,2.42
2019-01-03T19:42:02.617Z,1.72
2019-01-03T19:44:53.143Z,1.73
2019-01-03T19:47:35.968Z,1.90
2019-01-03T19:50:26.195Z,1.17
2019-01-03T19:53:09.374Z,2.33
2019-01-03T19:55:59.562Z,1.57
2019-01-03T19:58:31.045Z,1.55
2019-01-03T20:01:21.232Z,1.85
2019-01-03T20:04:04.553Z,1.62
2019-01-03T20:06:54.742Z,2.17
2019-01-03T20:09:38.284Z,1.87
2019-01-03T20:12:28.859Z,2.52
2019-01-03T20:15:17.381Z,1.90
2019-01-03T20:18:07.754Z,1.43
2019-01-03T20:20:53.063Z,2.27
2019-01-03T20:23:42.567Z,2.10
2019-01-03T20:26:26.251Z,1.77
2019-01-03T20:28:57.416Z,1.93
2019-01-03T20:31:39.960Z,2.52
2019-01-03T20:34:23.244Z,2.77
2019-01-03T20:37:13.492Z,2.20
2019-01-03T20:39:56.828Z,2.27
2019-01-03T20:42:39.696Z,2.17
2019-01-03T20:48:30.103Z,1.63
2019-01-03T20:51:21.268Z,1.73
2019-01-03T20:54:04.149Z,1.87
2019-01-03T20:59:56.914Z,2.33
2019-01-03T21:02:47.169Z,2.13
2019-01-03T21:05:30.293Z,2.17
2019-01-03T21:08:01.624Z,2.30
2019-01-03T21:10:45.299Z,2.73
2019-01-03T21:13:35.798Z,2.10
2019-01-03T21:16:19.075Z,2.40
2019-01-03T21:19:10.295Z,2.97
2019-01-03T21:21:53.488Z,1.10
2019-01-03T21:24:43.740Z,2.15
2019-01-03T21:27:27.013Z,2.27
2019-01-03T21:33:20.923Z,2.47
2019-01-03T21:36:03.431Z,1.75
2019-01-03T21:38:53.725Z,3.40
2019-01-03T21:41:36.651Z,1.63
2019-01-03T21:44:26.938Z,2.10
2019-01-03T21:47:09.675Z,2.55
2019-01-03T21:50:01.594Z,2.33
2019-01-03T21:52:42.848Z,2.57
2019-01-03T21:55:33.309Z,2.43
2019-01-03T21:58:16.860Z,1.90
2019-01-03T22:01:07.514Z,2.23
2019-01-03T22:03:50.566Z,1.60
2019-01-03T22:06:40.755Z,2.75
2019-01-03T22:09:23.832Z,2.20
2019-01-03T22:12:14.092Z,2.25
2019-01-03T22:14:56.532Z,2.23
2019-01-03T22:17:27.569Z,2.77
2019-01-03T22:19:58.955Z,1.65
2019-01-03T22:22:49.155Z,2.27
2019-01-03T22:25:31.917Z,1.60
2019-01-03T22:28:02.877Z,2.50
2019-01-03T22:30:46.358Z,1.77
2019-01-03T22:33:37.439Z,3.40
2019-01-03T22:36:19.824Z,2.05
2019-01-03T22:39:10.308Z,2.35
2019-01-03T22:41:53.662Z,2.03
2019-01-03T22:44:44.363Z,2.05
2019-01-03T22:47:27.907Z,2.20
2019-01-03T22:50:18.420Z,2.02
2019-01-03T22:53:01.178Z,1.63
2019-01-03T22:58:58.370Z,1.40
2019-01-03T23:01:48.552Z,2.70
2019-01-03T23:04:31.222Z,3.03
2019-01-03T23:10:23.009Z,2.33
2019-01-03T23:13:13.198Z,1.77
2019-01-03T23:15:56.290Z,2.50
2019-01-03T23:18:46.748Z,1.83
2019-01-03T23:21:29.862Z,2.42
2019-01-03T23:27:27.568Z,2.67
2019-01-03T23:30:17.777Z,2.47
2019-01-03T23:33:01.130Z,3.47
2019-01-03T23:35:51.340Z,2.37
2019-01-03T23:38:22.626Z,2.20
2019-01-03T23:41:12.839Z,2.87
2019-01-03T23:43:43.797Z,2.23
2019-01-03T23:46:34.355Z,2.08
2019-01-03T23:49:17.876Z,2.05
2019-01-03T23:52:00.374Z,1.53
2019-01-03T23:54:50.588Z,2.40
2019-01-03T23:57:21.599Z,2.13
